sensor_id;sensor_type;location;lat;lon;timestamp;temperature;humidity
44435;DHT22;30138;20.964;105.830;2023-01-19T00:01:50;17.60;79.90
44435;DHT22;30138;20.964;105.830;2023-01-19T00:07:00;17.60;79.90
44435;DHT22;30138;20.964;105.830;2023-01-19T00:12:07;17.60;80.00
44435;DHT22;30138;20.964;105.830;2023-01-19T00:17:13;17.60;80.00
44435;DHT22;30138;20.964;105.830;2023-01-19T00:22:24;17.60;80.00
44435;DHT22;30138;20.964;105.830;2023-01-19T00:27:31;17.60;80.10
44435;DHT22;30138;20.964;105.830;2023-01-19T00:32:38;17.60;80.10
44435;DHT22;30138;20.964;105.830;2023-01-19T00:37:49;17.60;80.10
44435;DHT22;30138;20.964;105.830;2023-01-19T00:42:57;17.60;80.20
44435;DHT22;30138;20.964;105.830;2023-01-19T00:48:06;17.60;80.30
44435;DHT22;30138;20.964;105.830;2023-01-19T00:53:15;17.60;80.50
44435;DHT22;30138;20.964;105.830;2023-01-19T00:58:22;17.60;80.60
44435;DHT22;30138;20.964;105.830;2023-01-19T01:03:28;17.60;80.60
44435;DHT22;30138;20.964;105.830;2023-01-19T01:08:38;17.60;80.60
44435;DHT22;30138;20.964;105.830;2023-01-19T01:13:45;17.60;80.70
44435;DHT22;30138;20.964;105.830;2023-01-19T01:18:52;17.60;80.80
44435;DHT22;30138;20.964;105.830;2023-01-19T01:24:02;17.60;80.80
44435;DHT22;30138;20.964;105.830;2023-01-19T01:29:11;17.60;80.90
44435;DHT22;30138;20.964;105.830;2023-01-19T01:34:18;17.60;81.00
44435;DHT22;30138;20.964;105.830;2023-01-19T01:39:27;17.70;81.00
44435;DHT22;30138;20.964;105.830;2023-01-19T01:44:49;17.60;81.00
44435;DHT22;30138;20.964;105.830;2023-01-19T01:50:00;17.60;81.10
44435;DHT22;30138;20.964;105.830;2023-01-19T01:55:14;17.70;81.10
44435;DHT22;30138;20.964;105.830;2023-01-19T02:00:21;17.60;81.10
44435;DHT22;30138;20.964;105.830;2023-01-19T02:05:32;17.70;81.30
44435;DHT22;30138;20.964;105.830;2023-01-19T02:10:43;17.70;81.20
44435;DHT22;30138;20.964;105.830;2023-01-19T02:16:07;17.70;81.30
44435;DHT22;30138;20.964;105.830;2023-01-19T02:21:23;17.70;81.30
44435;DHT22;30138;20.964;105.830;2023-01-19T02:26:38;17.70;81.40
44435;DHT22;30138;20.964;105.830;2023-01-19T02:31:47;17.70;81.40
44435;DHT22;30138;20.964;105.830;2023-01-19T02:36:57;17.70;81.40
44435;DHT22;30138;20.964;105.830;2023-01-19T02:42:12;17.70;81.40
44435;DHT22;30138;20.964;105.830;2023-01-19T02:47:22;17.70;82.20
44435;DHT22;30138;20.964;105.830;2023-01-19T02:52:29;17.70;81.40
44435;DHT22;30138;20.964;105.830;2023-01-19T02:57:45;17.70;81.50
44435;DHT22;30138;20.964;105.830;2023-01-19T03:03:13;17.70;81.60
44435;DHT22;30138;20.964;105.830;2023-01-19T03:08:33;17.70;81.50
44435;DHT22;30138;20.964;105.830;2023-01-19T03:13:52;17.70;81.60
44435;DHT22;30138;20.964;105.830;2023-01-19T03:19:05;17.80;81.50
44435;DHT22;30138;20.964;105.830;2023-01-19T03:24:15;17.80;81.50
44435;DHT22;30138;20.964;105.830;2023-01-19T03:29:29;17.80;81.50
44435;DHT22;30138;20.964;105.830;2023-01-19T03:34:39;17.80;81.40
44435;DHT22;30138;20.964;105.830;2023-01-19T03:39:47;17.70;81.40
44435;DHT22;30138;20.964;105.830;2023-01-19T03:45:00;17.80;81.50
44435;DHT22;30138;20.964;105.830;2023-01-19T03:50:12;17.80;81.50
44435;DHT22;30138;20.964;105.830;2023-01-19T03:55:24;17.80;81.40
44435;DHT22;30138;20.964;105.830;2023-01-19T04:00:33;17.80;81.30
44435;DHT22;30138;20.964;105.830;2023-01-19T04:05:41;17.80;81.30
44435;DHT22;30138;20.964;105.830;2023-01-19T04:10:49;17.80;81.20
44435;DHT22;30138;20.964;105.830;2023-01-19T04:16:02;17.80;81.10
44435;DHT22;30138;20.964;105.830;2023-01-19T04:21:11;17.80;81.00
44435;DHT22;30138;20.964;105.830;2023-01-19T04:26:18;17.80;80.90
44435;DHT22;30138;20.964;105.830;2023-01-19T04:31:28;17.90;81.00
44435;DHT22;30138;20.964;105.830;2023-01-19T04:36:35;17.90;80.80
44435;DHT22;30138;20.964;105.830;2023-01-19T04:41:44;17.90;80.70
44435;DHT22;30138;20.964;105.830;2023-01-19T04:46:53;17.90;80.50
44435;DHT22;30138;20.964;105.830;2023-01-19T04:52:01;17.90;80.50
44435;DHT22;30138;20.964;105.830;2023-01-19T04:57:08;18.00;80.50
44435;DHT22;30138;20.964;105.830;2023-01-19T05:02:17;18.00;80.50
44435;DHT22;30138;20.964;105.830;2023-01-19T05:07:26;18.00;80.50
44435;DHT22;30138;20.964;105.830;2023-01-19T05:12:34;18.00;80.50
44435;DHT22;30138;20.964;105.830;2023-01-19T05:17:45;18.00;81.70
44435;DHT22;30138;20.964;105.830;2023-01-19T05:22:52;18.00;81.10
44435;DHT22;30138;20.964;105.830;2023-01-19T05:28:00;18.00;81.30
44435;DHT22;30138;20.964;105.830;2023-01-19T05:33:10;18.10;81.70
44435;DHT22;30138;20.964;105.830;2023-01-19T05:38:18;18.10;82.20
44435;DHT22;30138;20.964;105.830;2023-01-19T05:43:26;18.10;82.70
44435;DHT22;30138;20.964;105.830;2023-01-19T05:48:36;18.10;83.20
44435;DHT22;30138;20.964;105.830;2023-01-19T05:53:44;18.20;83.20
44435;DHT22;30138;20.964;105.830;2023-01-19T05:58:51;18.10;82.90
44435;DHT22;30138;20.964;105.830;2023-01-19T06:04:01;18.20;82.60
44435;DHT22;30138;20.964;105.830;2023-01-19T06:09:08;18.20;82.20
44435;DHT22;30138;20.964;105.830;2023-01-19T06:14:16;18.20;81.90
44435;DHT22;30138;20.964;105.830;2023-01-19T06:19:25;18.20;81.60
44435;DHT22;30138;20.964;105.830;2023-01-19T06:24:32;18.20;81.50
44435;DHT22;30138;20.964;105.830;2023-01-19T06:29:40;18.20;80.60
44435;DHT22;30138;20.964;105.830;2023-01-19T06:34:50;18.20;81.20
44435;DHT22;30138;20.964;105.830;2023-01-19T06:39:57;18.20;81.00
44435;DHT22;30138;20.964;105.830;2023-01-19T06:45:05;18.20;80.90
44435;DHT22;30138;20.964;105.830;2023-01-19T06:50:17;18.20;80.90
44435;DHT22;30138;20.964;105.830;2023-01-19T06:55:24;18.20;80.90
44435;DHT22;30138;20.964;105.830;2023-01-19T07:00:32;18.20;80.80
44435;DHT22;30138;20.964;105.830;2023-01-19T07:05:41;18.20;80.70
44435;DHT22;30138;20.964;105.830;2023-01-19T07:10:48;18.20;80.70
44435;DHT22;30138;20.964;105.830;2023-01-19T07:15:56;18.20;80.70
44435;DHT22;30138;20.964;105.830;2023-01-19T07:21:06;18.20;80.50
44435;DHT22;30138;20.964;105.830;2023-01-19T07:26:13;18.20;80.30
44435;DHT22;30138;20.964;105.830;2023-01-19T07:31:21;18.30;80.40
44435;DHT22;30138;20.964;105.830;2023-01-19T07:36:31;18.20;80.30
44435;DHT22;30138;20.964;105.830;2023-01-19T07:41:37;18.30;80.40
44435;DHT22;30138;20.964;105.830;2023-01-19T07:46:45;18.30;80.50
44435;DHT22;30138;20.964;105.830;2023-01-19T07:51:54;18.20;80.40
44435;DHT22;30138;20.964;105.830;2023-01-19T07:57:03;18.20;80.40
44435;DHT22;30138;20.964;105.830;2023-01-19T08:02:10;18.30;80.50
44435;DHT22;30138;20.964;105.830;2023-01-19T08:07:19;18.30;80.50
44435;DHT22;30138;20.964;105.830;2023-01-19T08:12:27;18.20;80.30
44435;DHT22;30138;20.964;105.830;2023-01-19T08:17:34;18.20;80.40
44435;DHT22;30138;20.964;105.830;2023-01-19T08:22:47;18.20;80.20
44435;DHT22;30138;20.964;105.830;2023-01-19T08:27:54;18.20;80.30
44435;DHT22;30138;20.964;105.830;2023-01-19T08:33:01;18.20;80.40
44435;DHT22;30138;20.964;105.830;2023-01-19T08:38:11;18.20;81.00
44435;DHT22;30138;20.964;105.830;2023-01-19T08:43:18;18.30;81.60
44435;DHT22;30138;20.964;105.830;2023-01-19T08:48:25;18.20;81.30
44435;DHT22;30138;20.964;105.830;2023-01-19T08:53:33;18.20;81.00
44435;DHT22;30138;20.964;105.830;2023-01-19T08:58:42;18.20;80.70
44435;DHT22;30138;20.964;105.830;2023-01-19T09:03:50;18.20;80.60
44435;DHT22;30138;20.964;105.830;2023-01-19T09:08:58;18.20;80.30
44435;DHT22;30138;20.964;105.830;2023-01-19T09:14:06;18.30;80.20
44435;DHT22;30138;20.964;105.830;2023-01-19T09:19:14;18.20;79.90
44435;DHT22;30138;20.964;105.830;2023-01-19T09:24:22;18.30;79.90
44435;DHT22;30138;20.964;105.830;2023-01-19T09:29:29;18.20;79.60
44435;DHT22;30138;20.964;105.830;2023-01-19T09:34:35;18.20;79.70
44435;DHT22;30138;20.964;105.830;2023-01-19T09:39:45;18.20;79.50
44435;DHT22;30138;20.964;105.830;2023-01-19T09:44:52;18.20;79.40
44435;DHT22;30138;20.964;105.830;2023-01-19T09:50:02;18.20;79.20
44435;DHT22;30138;20.964;105.830;2023-01-19T09:55:19;18.20;78.90
44435;DHT22;30138;20.964;105.830;2023-01-19T10:00:28;18.20;79.50
44435;DHT22;30138;20.964;105.830;2023-01-19T10:05:41;18.20;80.00
44435;DHT22;30138;20.964;105.830;2023-01-19T10:10:53;18.20;80.00
44435;DHT22;30138;20.964;105.830;2023-01-19T10:16:10;18.20;80.20
44435;DHT22;30138;20.964;105.830;2023-01-19T10:21:27;18.20;79.60
44435;DHT22;30138;20.964;105.830;2023-01-19T10:26:44;18.20;80.20
44435;DHT22;30138;20.964;105.830;2023-01-19T10:32:00;18.20;79.60
44435;DHT22;30138;20.964;105.830;2023-01-19T10:37:19;18.20;79.40
44435;DHT22;30138;20.964;105.830;2023-01-19T10:42:32;18.20;79.20
44435;DHT22;30138;20.964;105.830;2023-01-19T10:47:39;18.20;79.10
44435;DHT22;30138;20.964;105.830;2023-01-19T10:52:49;18.20;79.00
44435;DHT22;30138;20.964;105.830;2023-01-19T10:58:00;18.20;78.90
44435;DHT22;30138;20.964;105.830;2023-01-19T11:03:22;18.20;78.90
44435;DHT22;30138;20.964;105.830;2023-01-19T11:08:30;18.20;78.80
44435;DHT22;30138;20.964;105.830;2023-01-19T11:13:39;18.20;78.90
44435;DHT22;30138;20.964;105.830;2023-01-19T11:18:51;18.20;78.90
44435;DHT22;30138;20.964;105.830;2023-01-19T11:24:01;18.20;78.70
44435;DHT22;30138;20.964;105.830;2023-01-19T11:29:17;18.20;78.60
44435;DHT22;30138;20.964;105.830;2023-01-19T11:34:31;18.20;78.70
44435;DHT22;30138;20.964;105.830;2023-01-19T11:39:46;18.20;78.60
44435;DHT22;30138;20.964;105.830;2023-01-19T11:45:00;18.10;78.50
44435;DHT22;30138;20.964;105.830;2023-01-19T11:50:20;18.20;78.60
44435;DHT22;30138;20.964;105.830;2023-01-19T11:55:32;18.20;78.50
44435;DHT22;30138;20.964;105.830;2023-01-19T12:00:47;18.20;78.40
44435;DHT22;30138;20.964;105.830;2023-01-19T12:05:59;18.20;78.80
44435;DHT22;30138;20.964;105.830;2023-01-19T12:11:11;18.10;79.00
44435;DHT22;30138;20.964;105.830;2023-01-19T12:16:25;18.20;79.40
44435;DHT22;30138;20.964;105.830;2023-01-19T12:21:36;18.10;79.50
44435;DHT22;30138;20.964;105.830;2023-01-19T12:26:50;18.20;79.40
44435;DHT22;30138;20.964;105.830;2023-01-19T12:32:28;18.20;79.40
44435;DHT22;30138;20.964;105.830;2023-01-19T12:37:39;18.20;79.40
44435;DHT22;30138;20.964;105.830;2023-01-19T12:42:49;18.20;79.10
44435;DHT22;30138;20.964;105.830;2023-01-19T12:48:02;18.10;79.10
44435;DHT22;30138;20.964;105.830;2023-01-19T12:53:17;18.20;79.50
44435;DHT22;30138;20.964;105.830;2023-01-19T12:58:25;18.20;79.70
44435;DHT22;30138;20.964;105.830;2023-01-19T13:03:58;18.20;79.90
44435;DHT22;30138;20.964;105.830;2023-01-19T13:09:28;18.20;79.60
44435;DHT22;30138;20.964;105.830;2023-01-19T13:14:36;18.20;79.60
44435;DHT22;30138;20.964;105.830;2023-01-19T13:25:30;18.20;79.20
44435;DHT22;30138;20.964;105.830;2023-01-19T13:30:51;18.10;79.40
44435;DHT22;30138;20.964;105.830;2023-01-19T13:36:01;18.10;79.40
44435;DHT22;30138;20.964;105.830;2023-01-19T13:41:08;18.10;79.40
44435;DHT22;30138;20.964;105.830;2023-01-19T13:46:15;18.10;79.30
44435;DHT22;30138;20.964;105.830;2023-01-19T13:51:25;18.10;79.40
44435;DHT22;30138;20.964;105.830;2023-01-19T13:56:32;18.10;79.30
44435;DHT22;30138;20.964;105.830;2023-01-19T14:01:42;18.10;79.30
44435;DHT22;30138;20.964;105.830;2023-01-19T14:06:52;18.10;79.30
44435;DHT22;30138;20.964;105.830;2023-01-19T14:12:10;18.10;79.40
44435;DHT22;30138;20.964;105.830;2023-01-19T14:17:24;18.10;79.10
44435;DHT22;30138;20.964;105.830;2023-01-19T14:22:41;18.10;79.20
44435;DHT22;30138;20.964;105.830;2023-01-19T14:27:50;18.10;79.10
44435;DHT22;30138;20.964;105.830;2023-01-19T14:32:57;18.10;79.20
44435;DHT22;30138;20.964;105.830;2023-01-19T14:38:13;18.00;79.40
44435;DHT22;30138;20.964;105.830;2023-01-19T14:43:22;18.00;79.30
44435;DHT22;30138;20.964;105.830;2023-01-19T14:48:30;18.00;79.10
44435;DHT22;30138;20.964;105.830;2023-01-19T14:53:39;18.00;78.90
44435;DHT22;30138;20.964;105.830;2023-01-19T14:58:54;18.00;78.80
44435;DHT22;30138;20.964;105.830;2023-01-19T15:04:01;18.00;78.80
44435;DHT22;30138;20.964;105.830;2023-01-19T15:09:12;18.00;78.80
44435;DHT22;30138;20.964;105.830;2023-01-19T15:14:20;18.00;78.70
44435;DHT22;30138;20.964;105.830;2023-01-19T15:19:30;18.00;78.80
44435;DHT22;30138;20.964;105.830;2023-01-19T15:24:41;18.00;78.70
44435;DHT22;30138;20.964;105.830;2023-01-19T15:29:49;18.00;78.80
44435;DHT22;30138;20.964;105.830;2023-01-19T15:34:57;18.00;78.70
44435;DHT22;30138;20.964;105.830;2023-01-19T15:40:06;18.00;78.60
44435;DHT22;30138;20.964;105.830;2023-01-19T15:45:34;18.00;78.50
44435;DHT22;30138;20.964;105.830;2023-01-19T15:50:44;17.90;78.50
44435;DHT22;30138;20.964;105.830;2023-01-19T15:55:53;17.90;78.40
44435;DHT22;30138;20.964;105.830;2023-01-19T16:01:00;18.00;78.50
44435;DHT22;30138;20.964;105.830;2023-01-19T16:06:07;17.90;78.60
44435;DHT22;30138;20.964;105.830;2023-01-19T16:11:16;17.90;78.50
44435;DHT22;30138;20.964;105.830;2023-01-19T16:16:25;17.90;78.30
44435;DHT22;30138;20.964;105.830;2023-01-19T16:21:31;17.90;78.40
44435;DHT22;30138;20.964;105.830;2023-01-19T16:26:41;17.90;78.40
44435;DHT22;30138;20.964;105.830;2023-01-19T16:31:48;17.90;78.20
44435;DHT22;30138;20.964;105.830;2023-01-19T16:36:56;17.90;78.30
44435;DHT22;30138;20.964;105.830;2023-01-19T16:42:05;17.90;78.20
44435;DHT22;30138;20.964;105.830;2023-01-19T16:47:12;17.90;78.20
44435;DHT22;30138;20.964;105.830;2023-01-19T16:52:20;17.90;78.30
44435;DHT22;30138;20.964;105.830;2023-01-19T16:57:29;17.90;78.30
44435;DHT22;30138;20.964;105.830;2023-01-19T17:02:36;17.90;78.30
44435;DHT22;30138;20.964;105.830;2023-01-19T17:07:44;17.90;78.20
44435;DHT22;30138;20.964;105.830;2023-01-19T17:12:53;17.90;78.30
44435;DHT22;30138;20.964;105.830;2023-01-19T17:18:01;17.90;78.30
44435;DHT22;30138;20.964;105.830;2023-01-19T17:23:09;17.90;78.40
44435;DHT22;30138;20.964;105.830;2023-01-19T17:28:18;17.90;78.30
44435;DHT22;30138;20.964;105.830;2023-01-19T17:33:25;17.90;78.30
44435;DHT22;30138;20.964;105.830;2023-01-19T17:38:32;17.90;78.30
44435;DHT22;30138;20.964;105.830;2023-01-19T17:43:42;17.90;78.30
44435;DHT22;30138;20.964;105.830;2023-01-19T17:48:51;17.90;78.30
44435;DHT22;30138;20.964;105.830;2023-01-19T17:53:58;17.90;78.50
44435;DHT22;30138;20.964;105.830;2023-01-19T17:59:07;17.90;78.60
44435;DHT22;30138;20.964;105.830;2023-01-19T18:04:14;17.90;78.70
44435;DHT22;30138;20.964;105.830;2023-01-19T18:09:22;17.90;78.80
44435;DHT22;30138;20.964;105.830;2023-01-19T18:14:31;17.90;78.90
44435;DHT22;30138;20.964;105.830;2023-01-19T18:19:38;17.80;79.00
44435;DHT22;30138;20.964;105.830;2023-01-19T18:24:45;17.80;79.00
44435;DHT22;30138;20.964;105.830;2023-01-19T18:29:53;17.80;79.20
44435;DHT22;30138;20.964;105.830;2023-01-19T18:34:59;17.80;79.20
44435;DHT22;30138;20.964;105.830;2023-01-19T18:40:07;17.80;79.60
44435;DHT22;30138;20.964;105.830;2023-01-19T18:45:16;17.80;79.60
44435;DHT22;30138;20.964;105.830;2023-01-19T18:50:23;17.80;79.70
44435;DHT22;30138;20.964;105.830;2023-01-19T18:55:31;17.80;79.80
44435;DHT22;30138;20.964;105.830;2023-01-19T19:00:40;17.80;80.10
44435;DHT22;30138;20.964;105.830;2023-01-19T19:05:46;17.80;80.10
44435;DHT22;30138;20.964;105.830;2023-01-19T19:10:53;17.80;80.10
44435;DHT22;30138;20.964;105.830;2023-01-19T19:16:07;17.80;80.20
44435;DHT22;30138;20.964;105.830;2023-01-19T19:21:16;17.80;80.30
44435;DHT22;30138;20.964;105.830;2023-01-19T19:26:24;17.80;80.30
44435;DHT22;30138;20.964;105.830;2023-01-19T19:31:33;17.80;80.40
44435;DHT22;30138;20.964;105.830;2023-01-19T19:36:40;17.80;80.40
44435;DHT22;30138;20.964;105.830;2023-01-19T19:41:47;17.80;80.40
44435;DHT22;30138;20.964;105.830;2023-01-19T19:46:57;17.80;80.50
44435;DHT22;30138;20.964;105.830;2023-01-19T19:52:04;17.80;80.40
44435;DHT22;30138;20.964;105.830;2023-01-19T19:57:11;17.80;80.40
44435;DHT22;30138;20.964;105.830;2023-01-19T20:02:20;17.80;80.40
44435;DHT22;30138;20.964;105.830;2023-01-19T20:07:27;17.80;80.50
44435;DHT22;30138;20.964;105.830;2023-01-19T20:12:35;17.80;80.50
44435;DHT22;30138;20.964;105.830;2023-01-19T20:17:44;17.80;80.50
44435;DHT22;30138;20.964;105.830;2023-01-19T20:22:50;17.80;80.50
44435;DHT22;30138;20.964;105.830;2023-01-19T20:27:57;17.80;80.50
44435;DHT22;30138;20.964;105.830;2023-01-19T20:33:06;17.70;80.50
44435;DHT22;30138;20.964;105.830;2023-01-19T20:38:12;17.70;80.50
44435;DHT22;30138;20.964;105.830;2023-01-19T20:43:20;17.70;80.60
44435;DHT22;30138;20.964;105.830;2023-01-19T20:48:28;17.80;80.70
44435;DHT22;30138;20.964;105.830;2023-01-19T20:53:37;17.70;80.60
44435;DHT22;30138;20.964;105.830;2023-01-19T20:58:44;17.70;80.70
44435;DHT22;30138;20.964;105.830;2023-01-19T21:03:53;17.70;80.80
44435;DHT22;30138;20.964;105.830;2023-01-19T21:09:00;17.70;80.80
44435;DHT22;30138;20.964;105.830;2023-01-19T21:14:07;17.70;81.00
44435;DHT22;30138;20.964;105.830;2023-01-19T21:19:17;17.70;81.00
44435;DHT22;30138;20.964;105.830;2023-01-19T21:24:24;17.70;81.10
44435;DHT22;30138;20.964;105.830;2023-01-19T21:29:31;17.70;81.20
44435;DHT22;30138;20.964;105.830;2023-01-19T21:34:42;17.80;81.40
44435;DHT22;30138;20.964;105.830;2023-01-19T21:39:50;17.70;81.30
44435;DHT22;30138;20.964;105.830;2023-01-19T21:44:57;17.70;81.40
44435;DHT22;30138;20.964;105.830;2023-01-19T21:50:05;17.70;81.40
44435;DHT22;30138;20.964;105.830;2023-01-19T21:55:13;17.70;81.40
44435;DHT22;30138;20.964;105.830;2023-01-19T22:00:20;17.70;81.40
44435;DHT22;30138;20.964;105.830;2023-01-19T22:05:29;17.70;81.40
44435;DHT22;30138;20.964;105.830;2023-01-19T22:10:38;17.70;81.50
44435;DHT22;30138;20.964;105.830;2023-01-19T22:15:45;17.70;81.50
44435;DHT22;30138;20.964;105.830;2023-01-19T22:20:55;17.70;81.60
44435;DHT22;30138;20.964;105.830;2023-01-19T22:26:09;17.70;81.60
44435;DHT22;30138;20.964;105.830;2023-01-19T22:31:17;17.70;81.90
44435;DHT22;30138;20.964;105.830;2023-01-19T22:36:28;17.70;82.20
44435;DHT22;30138;20.964;105.830;2023-01-19T22:41:37;17.70;82.30
44435;DHT22;30138;20.964;105.830;2023-01-19T22:46:44;17.70;82.60
44435;DHT22;30138;20.964;105.830;2023-01-19T22:51:53;17.70;82.80
44435;DHT22;30138;20.964;105.830;2023-01-19T22:56:59;17.70;83.00
44435;DHT22;30138;20.964;105.830;2023-01-19T23:02:06;17.70;83.20
44435;DHT22;30138;20.964;105.830;2023-01-19T23:07:17;17.70;83.40
44435;DHT22;30138;20.964;105.830;2023-01-19T23:12:25;17.70;83.50
44435;DHT22;30138;20.964;105.830;2023-01-19T23:17:32;17.70;83.70
44435;DHT22;30138;20.964;105.830;2023-01-19T23:22:42;17.70;83.90
44435;DHT22;30138;20.964;105.830;2023-01-19T23:27:49;17.70;83.90
44435;DHT22;30138;20.964;105.830;2023-01-19T23:32:59;17.70;84.20
44435;DHT22;30138;20.964;105.830;2023-01-19T23:38:07;17.70;84.20
44435;DHT22;30138;20.964;105.830;2023-01-19T23:43:14;17.70;84.40
44435;DHT22;30138;20.964;105.830;2023-01-19T23:48:21;17.70;84.70
44435;DHT22;30138;20.964;105.830;2023-01-19T23:53:29;17.70;84.70
44435;DHT22;30138;20.964;105.830;2023-01-19T23:58:36;17.70;84.80
